Aviation Digital Data Service (ADDS)

Output produced by METARs form (0324 UTC 21 September 2017)
found at http://www.aviationweather.gov/adds/metars/
 
FKKD 210300Z 00000KT 9000 -DZ SCT005 BKN012 FEW015CB 25/25 Q1010 TEMPO 4000 -RADZ
TAF COR FKKD 202300Z 2100/2206 24003KT 9999 TS BKN013 FEW016CB 
     TEMPO 2100/2107 4000 TSRA 
     PROB40 2104/2106 2500 TSRADZ FEW005 OVC009 FEW010CB 
     BECMG 2107/2109 NSW 
     PROB40 2118/2124 4000 RADZ 
     TEMPO 2200/2206 3000 TSRADZ
       
FKKR 210300Z 00000KT CAVOK 23/23 Q1011
FKYS 210300Z 26003KT 220V300 9999 SCT003 BKN006 22/21 Q1014 NOSIG
TAF FKYS 202300Z 2100/2124 23003KT 8000 FEW003 BKN006 
     PROB40 2104/2107 2500 BR DZ 
     BECMG 2108/2110 BKN016 
     TEMPO 2114/2122 TS BKN016 FEW020CB